createdAt,value
2018-07-26T00:00:35.157Z,5.50
2018-07-26T00:03:03.766Z,4.53
2018-07-26T00:05:32.445Z,5.20
2018-07-26T00:08:00.847Z,4.47
2018-07-26T00:10:29.276Z,4.70
2018-07-26T00:12:57.727Z,5.67
2018-07-26T00:15:26.264Z,5.60
2018-07-26T00:17:54.655Z,5.10
2018-07-26T00:20:23.072Z,5.10
2018-07-26T00:22:51.443Z,5.10
2018-07-26T00:25:19.929Z,4.83
2018-07-26T00:27:48.408Z,4.80
2018-07-26T00:30:16.765Z,5.23
2018-07-26T00:32:46.145Z,5.10
2018-07-26T00:35:14.565Z,4.80
2018-07-26T00:37:42.916Z,4.70
2018-07-26T00:40:11.401Z,5.83
2018-07-26T00:42:39.828Z,5.07
2018-07-26T00:45:08.188Z,4.90
2018-07-26T00:47:36.543Z,4.67
2018-07-26T00:50:04.979Z,4.57
2018-07-26T00:52:33.355Z,4.93
2018-07-26T00:55:01.755Z,5.20
2018-07-26T00:57:30.151Z,5.67
2018-07-26T00:59:58.579Z,5.13
2018-07-26T01:02:26.937Z,6.10
2018-07-26T01:04:55.377Z,5.00
2018-07-26T01:07:23.718Z,5.57
2018-07-26T01:09:52.266Z,5.73
2018-07-26T01:12:20.625Z,4.50
2018-07-26T01:14:49.364Z,4.87
2018-07-26T01:17:18.218Z,5.00
2018-07-26T01:19:46.641Z,5.90
2018-07-26T01:22:14.989Z,4.83
2018-07-26T01:24:43.372Z,5.10
2018-07-26T01:27:11.811Z,5.50
2018-07-26T01:29:40.163Z,5.20
2018-07-26T01:32:08.613Z,5.87
2018-07-26T01:34:37.028Z,5.57
2018-07-26T01:37:05.784Z,5.67
2018-07-26T01:39:34.217Z,6.00
2018-07-26T01:42:02.712Z,5.30
2018-07-26T01:44:31.138Z,5.13
2018-07-26T01:46:59.556Z,5.13
2018-07-26T01:49:28.066Z,5.83
2018-07-26T01:51:56.645Z,6.23
2018-07-26T01:54:25.054Z,5.60
2018-07-26T01:56:53.807Z,5.43
2018-07-26T01:59:22.180Z,5.87
2018-07-26T02:01:50.556Z,6.20
2018-07-26T02:04:18.956Z,5.27
2018-07-26T02:06:47.353Z,5.77
2018-07-26T02:09:15.773Z,5.97
2018-07-26T02:11:44.157Z,5.50
2018-07-26T02:14:18.085Z,5.30
2018-07-26T02:16:46.495Z,5.90
2018-07-26T02:19:14.699Z,5.67
2018-07-26T02:21:43.075Z,5.90
2018-07-26T02:24:11.450Z,5.07
2018-07-26T02:26:39.850Z,5.43
2018-07-26T02:29:08.236Z,6.37
2018-07-26T02:31:36.836Z,5.73
2018-07-26T02:34:05.236Z,5.67
2018-07-26T02:36:33.438Z,5.17
2018-07-26T02:39:01.884Z,5.80
2018-07-26T02:41:30.312Z,5.80
2018-07-26T02:43:58.893Z,5.73
2018-07-26T02:46:27.295Z,5.17
2018-07-26T02:48:55.700Z,6.00
2018-07-26T02:51:24.069Z,5.93
2018-07-26T02:53:52.506Z,5.93
2018-07-26T02:56:20.932Z,6.20
2018-07-26T02:58:49.307Z,6.53
2018-07-26T03:01:17.694Z,5.90
2018-07-26T03:03:46.117Z,5.90
2018-07-26T03:06:14.513Z,7.07
2018-07-26T03:08:42.913Z,6.50
2018-07-26T03:11:11.281Z,5.80
2018-07-26T03:13:39.845Z,6.00
2018-07-26T03:16:08.421Z,5.87
2018-07-26T03:18:36.820Z,6.50
2018-07-26T03:21:05.290Z,5.47
2018-07-26T03:23:33.696Z,5.90
2018-07-26T03:26:02.284Z,6.00
2018-07-26T03:28:30.635Z,6.30
2018-07-26T03:30:59.036Z,6.23
2018-07-26T03:33:27.423Z,6.07
2018-07-26T03:35:55.925Z,6.00
2018-07-26T03:38:24.269Z,5.90
2018-07-26T03:40:52.713Z,6.37
2018-07-26T03:43:21.072Z,6.43
2018-07-26T03:45:49.493Z,5.50
2018-07-26T03:48:17.867Z,6.20
2018-07-26T03:50:46.349Z,6.13
2018-07-26T03:53:14.729Z,7.33
2018-07-26T03:55:43.132Z,7.00
2018-07-26T03:58:11.532Z,6.83
2018-07-26T04:00:39.901Z,6.83
2018-07-26T04:03:08.318Z,6.10
2018-07-26T04:05:36.556Z,6.10
2018-07-26T04:08:05.048Z,7.00
2018-07-26T04:10:33.764Z,7.47
2018-07-26T04:13:02.155Z,7.83
2018-07-26T04:15:30.747Z,7.30
2018-07-26T04:18:07.830Z,6.30
2018-07-26T04:20:37.972Z,7.60
2018-07-26T04:23:06.360Z,6.60
2018-07-26T04:25:34.704Z,6.83
2018-07-26T04:28:03.417Z,6.53
2018-07-26T04:30:31.830Z,7.37
2018-07-26T04:33:00.267Z,7.07
2018-07-26T04:35:28.643Z,7.60
2018-07-26T04:37:57.045Z,6.47
2018-07-26T04:40:25.405Z,6.30
2018-07-26T04:42:53.969Z,6.07
2018-07-26T04:45:22.525Z,6.60
2018-07-26T04:47:51.138Z,7.47
2018-07-26T04:50:19.537Z,7.53
2018-07-26T04:52:47.951Z,7.30
2018-07-26T04:55:16.345Z,6.70
2018-07-26T04:57:44.869Z,7.43
2018-07-26T05:00:13.252Z,6.87
2018-07-26T05:02:41.669Z,8.47
2018-07-26T05:05:10.060Z,6.27
2018-07-26T05:07:38.483Z,7.67
2018-07-26T05:10:07.068Z,6.83
2018-07-26T05:12:35.425Z,6.50
2018-07-26T05:15:05.004Z,8.00
2018-07-26T05:17:34.080Z,7.20
2018-07-26T05:20:02.496Z,7.00
2018-07-26T05:22:30.873Z,7.23
2018-07-26T05:24:59.573Z,7.00
2018-07-26T05:27:27.962Z,8.90
2018-07-26T05:29:56.549Z,7.20
2018-07-26T05:32:24.936Z,7.13
2018-07-26T05:34:53.456Z,7.77
2018-07-26T05:37:21.938Z,6.97
2018-07-26T05:39:50.328Z,7.87
2018-07-26T05:42:18.821Z,6.80
2018-07-26T05:44:47.125Z,8.07
2018-07-26T05:47:16.347Z,7.63
2018-07-26T05:49:44.730Z,7.50
2018-07-26T05:52:13.240Z,8.53
2018-07-26T05:54:41.672Z,9.63
2018-07-26T05:57:10.096Z,9.33
2018-07-26T05:59:38.500Z,10.60
2018-07-26T06:02:07.214Z,10.30
2018-07-26T06:04:35.604Z,9.30
2018-07-26T06:07:04.180Z,10.07
2018-07-26T06:09:32.852Z,9.30
2018-07-26T06:12:01.300Z,9.73
2018-07-26T06:14:30.725Z,9.03
2018-07-26T06:16:59.542Z,10.17
2018-07-26T06:19:28.713Z,9.47
2018-07-26T06:21:57.120Z,8.60
2018-07-26T06:24:25.752Z,9.60
2018-07-26T06:26:54.286Z,8.40
2018-07-26T06:29:23.204Z,8.20
2018-07-26T06:31:51.712Z,8.93
2018-07-26T06:34:20.317Z,9.20
2018-07-26T06:36:48.768Z,10.30
2018-07-26T06:39:17.285Z,9.70
2018-07-26T06:41:45.783Z,8.80
2018-07-26T06:44:14.777Z,7.43
2018-07-26T06:46:43.569Z,7.93
2018-07-26T06:49:12.006Z,9.20
2018-07-26T06:51:40.399Z,8.83
2018-07-26T06:54:09.085Z,9.68
2018-07-26T06:56:37.654Z,8.03
2018-07-26T06:59:06.714Z,9.07
2018-07-26T07:01:35.129Z,10.43
2018-07-26T07:04:03.613Z,9.40
2018-07-26T07:06:32.177Z,9.53
2018-07-26T07:09:00.934Z,8.17
2018-07-26T07:11:29.350Z,9.37
2018-07-26T07:13:57.950Z,7.93
2018-07-26T07:16:26.154Z,8.93
2018-07-26T07:18:54.632Z,8.63
2018-07-26T07:21:23.026Z,9.57
2018-07-26T07:23:51.649Z,9.47
2018-07-26T07:26:20.082Z,9.40
2018-07-26T07:28:48.536Z,8.70
2018-07-26T07:31:17.617Z,8.57
2018-07-26T07:33:46.169Z,8.60
2018-07-26T07:36:14.900Z,9.30
2018-07-26T07:38:43.879Z,9.47
2018-07-26T07:41:12.722Z,9.30
2018-07-26T07:43:41.141Z,9.47
2018-07-26T07:46:09.600Z,9.80
2018-07-26T07:48:38.213Z,9.70
2018-07-26T07:51:06.677Z,9.20
2018-07-26T07:53:35.130Z,9.70
2018-07-26T07:56:03.591Z,8.57
2018-07-26T07:58:32.369Z,8.87
2018-07-26T08:01:01.045Z,9.80
2018-07-26T08:03:29.924Z,8.43
2018-07-26T08:05:58.353Z,8.50
2018-07-26T08:08:26.783Z,8.20
2018-07-26T08:10:55.383Z,9.37
2018-07-26T08:13:24.067Z,7.70
2018-07-26T08:15:52.482Z,7.87
2018-07-26T08:18:21.864Z,6.57
2018-07-26T08:20:50.724Z,6.83
2018-07-26T08:23:19.177Z,7.47
2018-07-26T08:25:47.969Z,7.23
2018-07-26T08:28:17.017Z,6.90
2018-07-26T08:30:45.501Z,6.43
2018-07-26T08:33:14.169Z,5.30
2018-07-26T08:35:42.599Z,5.60
2018-07-26T08:38:11.160Z,5.57
2018-07-26T08:40:39.573Z,5.30
2018-07-26T08:43:08.429Z,4.27
2018-07-26T08:45:36.842Z,4.47
2018-07-26T08:48:05.425Z,5.83
2018-07-26T08:50:33.941Z,4.80
2018-07-26T08:53:02.425Z,4.10
2018-07-26T08:55:30.821Z,4.37
2018-07-26T08:57:59.273Z,4.40
2018-07-26T09:00:28.041Z,3.83
2018-07-26T09:02:56.529Z,4.47
2018-07-26T09:05:25.202Z,4.43
2018-07-26T09:07:53.618Z,5.20
2018-07-26T09:10:22.592Z,5.00
2018-07-26T09:12:51.009Z,5.20
2018-07-26T09:15:19.812Z,5.33
2018-07-26T09:17:48.293Z,6.10
2018-07-26T09:20:16.939Z,6.00
2018-07-26T09:22:45.531Z,4.30
2018-07-26T09:25:13.751Z,5.50
2018-07-26T09:27:42.115Z,5.30
2018-07-26T09:30:11.404Z,4.90
2018-07-26T09:32:40.366Z,4.97
2018-07-26T09:35:09.093Z,4.63
2018-07-26T09:37:37.733Z,3.90
2018-07-26T09:40:06.212Z,4.30
2018-07-26T09:42:35.280Z,4.20
2018-07-26T09:45:03.785Z,4.87
2018-07-26T09:47:32.163Z,3.50
2018-07-26T09:50:00.589Z,5.60
2018-07-26T09:52:29.212Z,5.10
2018-07-26T09:54:57.632Z,4.53
2018-07-26T09:57:26.525Z,3.90
2018-07-26T09:59:55.096Z,4.10
2018-07-26T10:02:24.472Z,4.77
2018-07-26T10:04:52.874Z,4.10
2018-07-26T10:07:21.356Z,3.33
2018-07-26T10:09:49.847Z,3.20
2018-07-26T10:12:18.302Z,4.43
2018-07-26T10:14:46.985Z,3.80
2018-07-26T10:17:15.481Z,3.73
2018-07-26T10:19:43.972Z,4.70
2018-07-26T10:22:12.509Z,4.60
2018-07-26T10:24:40.945Z,4.67
2018-07-26T10:27:09.606Z,4.83
2018-07-26T10:29:38.005Z,4.97
2018-07-26T10:32:06.240Z,3.80
2018-07-26T10:34:34.664Z,4.00
2018-07-26T10:37:03.144Z,3.83
2018-07-26T10:39:31.629Z,4.43
2018-07-26T10:42:00.103Z,4.30
2018-07-26T10:44:29.023Z,4.97
2018-07-26T10:46:57.531Z,4.00
2018-07-26T10:49:26.121Z,4.10
2018-07-26T10:51:54.593Z,4.53
2018-07-26T10:54:23.004Z,4.37
2018-07-26T10:56:51.439Z,4.77
2018-07-26T10:59:19.844Z,4.40
2018-07-26T11:01:48.532Z,4.30
2018-07-26T11:04:18.042Z,4.57
2018-07-26T11:06:46.504Z,4.70
2018-07-26T11:09:15.038Z,4.47
2018-07-26T11:11:43.515Z,4.40
2018-07-26T11:14:12.153Z,4.53
2018-07-26T11:16:40.726Z,4.47
2018-07-26T11:19:09.093Z,4.93
2018-07-26T11:21:37.799Z,5.20
2018-07-26T11:24:06.517Z,5.00
2018-07-26T11:26:35.212Z,4.37
2018-07-26T11:29:03.796Z,4.60
2018-07-26T11:31:32.266Z,4.40
2018-07-26T11:34:00.875Z,4.70
2018-07-26T11:36:29.458Z,4.60
2018-07-26T11:38:58.367Z,5.03
2018-07-26T11:41:27.161Z,4.70
2018-07-26T11:43:55.605Z,5.30
2018-07-26T11:46:24.034Z,5.47
2018-07-26T11:48:52.412Z,5.00
2018-07-26T11:51:20.865Z,4.53
2018-07-26T11:53:49.268Z,5.33
2018-07-26T11:56:17.874Z,5.67
2018-07-26T11:58:46.266Z,5.17
2018-07-26T12:01:14.749Z,4.43
2018-07-26T12:03:43.769Z,6.17
2018-07-26T12:06:12.390Z,5.20
2018-07-26T12:08:40.744Z,4.90
2018-07-26T12:11:09.219Z,5.27
2018-07-26T12:13:38.237Z,5.90
2018-07-26T12:16:06.893Z,5.30
2018-07-26T12:18:35.308Z,6.10
2018-07-26T12:21:03.889Z,5.27
2018-07-26T12:23:32.378Z,6.83
2018-07-26T12:26:00.773Z,6.77
2018-07-26T12:28:29.193Z,6.60
2018-07-26T12:30:57.607Z,5.97
2018-07-26T12:33:26.304Z,5.83
2018-07-26T12:35:54.735Z,6.50
2018-07-26T12:38:23.422Z,5.93
2018-07-26T12:40:51.851Z,6.90
2018-07-26T12:43:20.334Z,6.27
2018-07-26T12:45:48.768Z,6.17
2018-07-26T12:48:17.133Z,6.63
2018-07-26T12:50:46.379Z,6.70
2018-07-26T12:53:15.023Z,6.37
2018-07-26T12:55:43.649Z,7.33
2018-07-26T12:58:12.272Z,5.43
2018-07-26T13:00:40.735Z,6.10
2018-07-26T13:03:09.172Z,6.07
2018-07-26T13:05:37.862Z,6.07
2018-07-26T13:08:06.679Z,4.87
2018-07-26T13:10:35.098Z,5.73
2018-07-26T13:13:03.544Z,5.73
2018-07-26T13:15:32.302Z,5.37
2018-07-26T13:18:00.806Z,5.57
2018-07-26T13:20:29.594Z,5.87
2018-07-26T13:22:58.468Z,5.50
2018-07-26T13:25:26.939Z,6.67
2018-07-26T13:27:55.557Z,6.10
2018-07-26T13:30:24.144Z,6.03
2018-07-26T13:32:52.553Z,6.50
2018-07-26T13:35:20.938Z,6.13
2018-07-26T13:37:49.372Z,7.20
2018-07-26T13:40:18.499Z,5.70
2018-07-26T13:42:47.408Z,6.80
2018-07-26T13:45:16.394Z,6.87
2018-07-26T13:47:44.851Z,7.60
2018-07-26T13:50:13.447Z,7.27
2018-07-26T13:52:41.954Z,8.10
2018-07-26T13:55:10.345Z,8.10
2018-07-26T13:57:38.939Z,8.63
2018-07-26T14:00:07.666Z,7.60
2018-07-26T14:02:36.249Z,6.87
2018-07-26T14:05:04.828Z,6.60
2018-07-26T14:07:33.200Z,7.07
2018-07-26T14:10:01.750Z,6.47
2018-07-26T14:12:30.146Z,5.50
2018-07-26T14:14:58.848Z,5.50
2018-07-26T14:17:27.271Z,6.20
2018-07-26T14:19:55.904Z,5.50
2018-07-26T14:22:24.368Z,5.70
2018-07-26T14:24:52.855Z,6.43
2018-07-26T14:27:21.362Z,5.30
2018-07-26T14:29:49.769Z,5.53
2018-07-26T14:32:18.152Z,6.23
2018-07-26T14:34:46.727Z,5.20
2018-07-26T14:37:15.133Z,5.07
2018-07-26T14:39:43.546Z,5.53
2018-07-26T14:42:12.105Z,5.37
2018-07-26T14:44:40.703Z,5.00
2018-07-26T14:47:09.109Z,4.80
2018-07-26T14:49:37.777Z,5.60
2018-07-26T14:52:06.155Z,5.40
2018-07-26T14:54:34.757Z,5.00
2018-07-26T14:57:03.399Z,5.07
2018-07-26T14:59:32.703Z,5.23
2018-07-26T15:02:00.881Z,5.47
2018-07-26T15:04:29.528Z,4.80
2018-07-26T15:06:58.031Z,4.80
2018-07-26T15:09:27.268Z,5.70
2018-07-26T15:11:55.671Z,5.67
2018-07-26T15:14:24.308Z,5.30
2018-07-26T15:16:52.697Z,4.97
2018-07-26T15:19:21.116Z,5.67
2018-07-26T15:21:49.481Z,4.87
2018-07-26T15:24:18.011Z,5.43
2018-07-26T15:26:46.647Z,4.97
2018-07-26T15:29:15.756Z,6.13
2018-07-26T15:31:44.358Z,5.10
2018-07-26T15:34:12.741Z,5.03
2018-07-26T15:36:41.216Z,4.87
2018-07-26T15:39:10.448Z,5.10
2018-07-26T15:41:43.052Z,4.70
2018-07-26T15:44:12.797Z,4.87
2018-07-26T15:46:41.379Z,5.07
2018-07-26T15:49:10.323Z,4.53
2018-07-26T15:51:38.819Z,4.97
2018-07-26T15:54:07.353Z,3.93
2018-07-26T15:56:35.933Z,4.30
2018-07-26T15:59:04.410Z,4.80
2018-07-26T16:01:32.796Z,4.10
2018-07-26T16:04:01.293Z,4.70
2018-07-26T16:06:30.600Z,4.30
2018-07-26T16:08:59.069Z,4.90
2018-07-26T16:11:28.040Z,3.95
2018-07-26T16:13:56.542Z,3.87
2018-07-26T16:16:26.011Z,3.80
2018-07-26T16:18:54.569Z,4.75
2018-07-26T16:21:23.196Z,3.58
2018-07-26T16:23:51.675Z,3.80
2018-07-26T16:26:20.088Z,4.20
2018-07-26T16:28:48.540Z,4.37
2018-07-26T16:31:16.940Z,4.43
2018-07-26T16:33:45.606Z,5.50
2018-07-26T16:36:14.017Z,4.80
2018-07-26T16:38:42.216Z,5.00
2018-07-26T16:41:10.872Z,4.13
2018-07-26T16:43:39.697Z,5.07
2018-07-26T16:46:08.114Z,4.27
2018-07-26T16:48:36.530Z,4.70
2018-07-26T16:51:05.195Z,5.30
2018-07-26T16:53:34.196Z,5.20
2018-07-26T16:56:02.814Z,5.53
2018-07-26T16:58:31.517Z,6.00
2018-07-26T17:01:00.157Z,5.37
2018-07-26T17:03:28.689Z,5.30
2018-07-26T17:05:57.157Z,6.10
2018-07-26T17:08:25.625Z,6.30
2018-07-26T17:10:54.153Z,5.37
2018-07-26T17:13:22.724Z,6.20
2018-07-26T17:15:51.273Z,6.17
2018-07-26T17:18:19.958Z,5.53
2018-07-26T17:20:48.403Z,4.97
2018-07-26T17:23:17.260Z,6.30
2018-07-26T17:25:46.381Z,6.57
2018-07-26T17:28:15.904Z,6.30
2018-07-26T17:30:44.623Z,5.83
2018-07-26T17:33:13.266Z,6.10
2018-07-26T17:35:41.778Z,6.37
2018-07-26T17:38:10.218Z,6.20
2018-07-26T17:40:38.753Z,6.37
2018-07-26T17:43:07.921Z,6.10
2018-07-26T17:45:36.748Z,5.30
2018-07-26T17:48:05.681Z,5.30
2018-07-26T17:50:34.318Z,5.80
2018-07-26T17:53:03.372Z,6.40
2018-07-26T17:55:31.821Z,7.67
2018-07-26T17:58:00.540Z,6.30
2018-07-26T18:00:28.992Z,6.33
2018-07-26T18:02:57.396Z,6.47
2018-07-26T18:05:25.648Z,6.40
2018-07-26T18:07:54.220Z,6.10
2018-07-26T18:10:22.798Z,7.20
2018-07-26T18:12:51.237Z,5.43
2018-07-26T18:15:19.719Z,6.53
2018-07-26T18:17:48.112Z,6.57
2018-07-26T18:20:16.621Z,6.43
2018-07-26T18:22:45.208Z,6.97
2018-07-26T18:25:13.817Z,6.90
2018-07-26T18:27:42.260Z,6.20
2018-07-26T18:30:11.012Z,6.70
2018-07-26T18:32:39.472Z,6.50
2018-07-26T18:35:08.057Z,6.73
2018-07-26T18:37:36.498Z,6.20
2018-07-26T18:40:06.796Z,6.30
2018-07-26T18:42:35.339Z,6.30
2018-07-26T18:45:03.802Z,6.40
2018-07-26T18:47:32.554Z,6.13
2018-07-26T18:50:00.941Z,6.63
2018-07-26T18:52:29.407Z,5.93
2018-07-26T18:54:58.261Z,6.87
2018-07-26T18:57:26.876Z,6.60
2018-07-26T18:59:55.290Z,6.70
2018-07-26T19:02:23.834Z,6.80
2018-07-26T19:04:52.481Z,6.70
2018-07-26T19:07:20.938Z,6.20
2018-07-26T19:09:49.505Z,6.97
2018-07-26T19:12:17.938Z,6.57
2018-07-26T19:14:46.509Z,6.60
2018-07-26T19:17:15.180Z,7.07
2018-07-26T19:19:43.596Z,6.50
2018-07-26T19:22:12.286Z,6.83
2018-07-26T19:24:40.510Z,8.23
2018-07-26T19:27:08.941Z,6.77
2018-07-26T19:29:37.451Z,6.60
2018-07-26T19:32:06.090Z,6.83
2018-07-26T19:34:34.728Z,6.43
2018-07-26T19:37:03.341Z,6.80
2018-07-26T19:39:31.952Z,6.83
2018-07-26T19:42:00.496Z,7.40
2018-07-26T19:44:28.965Z,7.33
2018-07-26T19:46:57.417Z,6.30
2018-07-26T19:49:25.824Z,7.40
2018-07-26T19:51:54.355Z,6.60
2018-07-26T19:54:22.885Z,6.60
2018-07-26T19:56:51.250Z,7.00
2018-07-26T19:59:19.808Z,6.90
2018-07-26T20:01:48.199Z,6.90
2018-07-26T20:04:17.176Z,6.77
2018-07-26T20:06:45.513Z,7.17
2018-07-26T20:09:14.168Z,7.23
2018-07-26T20:11:43.339Z,6.50
2018-07-26T20:14:11.796Z,7.60
2018-07-26T20:16:40.691Z,7.37
2018-07-26T20:19:09.586Z,7.00
2018-07-26T20:21:38.002Z,7.33
2018-07-26T20:24:06.454Z,7.10
2018-07-26T20:26:34.652Z,6.87
2018-07-26T20:29:03.354Z,7.17
2018-07-26T20:31:32.268Z,7.10
2018-07-26T20:34:00.736Z,7.30
2018-07-26T20:36:29.604Z,7.20
2018-07-26T20:38:58.047Z,6.90
2018-07-26T20:41:26.502Z,7.43
2018-07-26T20:43:54.981Z,7.90
2018-07-26T20:46:23.425Z,8.50
2018-07-26T20:48:51.873Z,8.00
2018-07-26T20:51:20.368Z,8.07
2018-07-26T20:53:49.153Z,7.93
2018-07-26T20:56:17.633Z,8.00
2018-07-26T20:58:46.120Z,8.10
2018-07-26T21:01:14.595Z,8.57
2018-07-26T21:03:43.029Z,10.20
2018-07-26T21:06:11.679Z,10.50
2018-07-26T21:08:40.100Z,9.43
2018-07-26T21:11:08.520Z,9.80
2018-07-26T21:13:36.985Z,8.07
2018-07-26T21:16:05.770Z,8.77
2018-07-26T21:18:34.400Z,9.73
2018-07-26T21:21:02.785Z,7.87
2018-07-26T21:23:31.409Z,8.83
2018-07-26T21:25:59.850Z,8.83
2018-07-26T21:28:28.201Z,8.83
2018-07-26T21:30:56.674Z,8.50
2018-07-26T21:33:25.921Z,9.60
2018-07-26T21:35:54.936Z,10.00
2018-07-26T21:38:23.441Z,8.30
2018-07-26T21:40:51.975Z,9.17
2018-07-26T21:43:20.318Z,8.50
2018-07-26T21:45:48.729Z,8.73
2018-07-26T21:48:17.192Z,9.40
2018-07-26T21:50:45.645Z,9.30
2018-07-26T21:53:14.089Z,8.90
2018-07-26T21:55:42.837Z,8.83
2018-07-26T21:58:11.215Z,8.27
2018-07-26T22:00:44.663Z,8.47
2018-07-26T22:03:13.077Z,8.73
2018-07-26T22:05:42.012Z,9.27
2018-07-26T22:08:10.461Z,8.97
2018-07-26T22:10:38.717Z,8.57
2018-07-26T22:13:07.113Z,8.20
2018-07-26T22:15:35.797Z,8.90
2018-07-26T22:18:04.182Z,8.60
2018-07-26T22:20:32.618Z,8.57
2018-07-26T22:23:01.201Z,8.70
2018-07-26T22:25:29.769Z,8.57
2018-07-26T22:27:58.185Z,8.80
2018-07-26T22:30:26.589Z,7.90
2018-07-26T22:32:55.013Z,7.87
2018-07-26T22:35:23.601Z,8.53
2018-07-26T22:37:51.996Z,9.23
2018-07-26T22:40:20.388Z,8.87
2018-07-26T22:42:49.563Z,8.73
2018-07-26T22:45:17.949Z,9.27
2018-07-26T22:47:46.348Z,9.60
2018-07-26T22:50:14.720Z,9.27
2018-07-26T22:52:43.626Z,7.90
2018-07-26T22:55:12.500Z,8.63
2018-07-26T22:57:40.945Z,10.30
2018-07-26T23:00:09.518Z,8.60
2018-07-26T23:02:37.916Z,9.63
2018-07-26T23:05:06.381Z,8.50
2018-07-26T23:07:34.783Z,10.00
2018-07-26T23:10:03.421Z,9.53
2018-07-26T23:12:31.937Z,9.20
2018-07-26T23:15:00.477Z,9.10
2018-07-26T23:17:29.307Z,9.47
2018-07-26T23:19:57.929Z,9.20
2018-07-26T23:22:26.308Z,10.00
2018-07-26T23:24:54.708Z,8.90
2018-07-26T23:27:23.460Z,8.63
2018-07-26T23:29:51.848Z,9.07
2018-07-26T23:32:20.243Z,9.47
2018-07-26T23:34:48.669Z,8.27
2018-07-26T23:37:17.089Z,8.93
2018-07-26T23:39:45.514Z,9.13
2018-07-26T23:42:14.718Z,9.33
2018-07-26T23:44:43.117Z,9.57
2018-07-26T23:47:11.599Z,9.47
2018-07-26T23:49:40.013Z,10.23
2018-07-26T23:52:08.375Z,8.00
2018-07-26T23:54:36.929Z,8.47
2018-07-26T23:57:05.569Z,8.53
2018-07-26T23:59:33.960Z,8.93
